Kezdőlap
METAR-TAF:

METAR-TAF

Repülőterek :

Kiel, Németország

földrajzi szélesség: 54-23N, földrajzi hosszúság: 010-10E, magasság: 31 m

Jelenlegi meteorológiai megfigyelések

A jelentés 27 perccel ezelõtt készült, 12:20 UTC
Nyugati szél 11 kt, nyugat-délnyugati és északnyugati között változik
Hőmérséklet 18°C
Páratartalom 56%
Légköri nyomás 1017 hPa
Látótávolság 10 km, vagy több
Kevés felhő 3600 lábon

METAR: EDHK 191220Z 28011KT 240V310 9999 FEW036 18/09 Q1017

Idő: 14:47 (12:47 UTC)

Előrejelzés

A jelentés 1 órával és 47 perccel ezelõtt készült, 11:00 UTC
Az előrejelzés 19-én 12 óra UTC és 19-én 19 óra UTC között érvényes
Északnyugati szél 10 kt
Látótávolság 10 km, vagy több
Szakadozott felhőzet 2500 lábon
Valószínűség 30% :
19-én 12 óra UTC és 19-én 16 óra UTC között ideiglenes
Nyugat-északnyugati szél 15 kt széllökések: 25 kt

TAF: EDHK 191100Z 1912/1919 31010KT 9999 BKN025 PROB30 TEMPO 1912/1916 30015G25KT

Meteorológiai megfigyelések és előrejelzések több, mint 4000 repülőtéren (METAR és TAF jelentéseket).

A térképen piros és sárga pontok jelzik az elérhető meteorológiai állomásokat.

Mozgassa az egeret a pont fölött, hogy megjelenjen az állomás neve.

Azután kattintson az időjárási megfigyelések és előrejelzések megtekintéséhez.

A térkép megváltoztatása: kattintson a fekete keresztel jelölt zöld gombra ráközelítéshez, a vonallal jelölt zöld gombra távolításhoz, vagy a zöld nyilakra a szomszédos térképek eléréséhez.


METAR-TAF: